sensor_id;sensor_type;location;lat;lon;timestamp;pressure;altitude;pressure_sealevel;temperature;humidity
7200;BME280;3641;49.082;8.200;2023-11-22T00:02:01;100881.09;;;6.69;92.33
7200;BME280;3641;49.082;8.200;2023-11-22T00:04:28;100879.38;;;6.68;92.37
7200;BME280;3641;49.082;8.200;2023-11-22T00:06:54;100871.09;;;6.69;92.01
7200;BME280;3641;49.082;8.200;2023-11-22T00:09:22;100875.78;;;6.77;91.94
7200;BME280;3641;49.082;8.200;2023-11-22T00:11:49;100874.53;;;6.62;91.37
7200;BME280;3641;49.082;8.200;2023-11-22T00:14:15;100887.97;;;6.63;90.64
7200;BME280;3641;49.082;8.200;2023-11-22T00:16:41;100885.03;;;6.37;89.05
7200;BME280;3641;49.082;8.200;2023-11-22T00:19:08;100887.84;;;6.45;90.76
7200;BME280;3641;49.082;8.200;2023-11-22T00:21:34;100895.31;;;6.33;90.25
7200;BME280;3641;49.082;8.200;2023-11-22T00:24:01;100897.88;;;6.45;90.34
7200;BME280;3641;49.082;8.200;2023-11-22T00:26:29;100905.84;;;6.27;89.35
7200;BME280;3641;49.082;8.200;2023-11-22T00:28:55;100911.13;;;6.38;89.75
7200;BME280;3641;49.082;8.200;2023-11-22T00:31:22;100904.00;;;6.37;89.76
7200;BME280;3641;49.082;8.200;2023-11-22T00:33:48;100914.84;;;6.27;90.84
7200;BME280;3641;49.082;8.200;2023-11-22T00:36:15;100914.56;;;6.11;91.28
7200;BME280;3641;49.082;8.200;2023-11-22T00:38:41;100916.84;;;6.06;93.96
7200;BME280;3641;49.082;8.200;2023-11-22T00:41:09;100921.13;;;6.08;94.07
7200;BME280;3641;49.082;8.200;2023-11-22T00:43:37;100917.41;;;5.99;95.07
7200;BME280;3641;49.082;8.200;2023-11-22T00:46:04;100925.91;;;5.85;93.42
7200;BME280;3641;49.082;8.200;2023-11-22T00:48:31;100944.88;;;5.75;92.98
7200;BME280;3641;49.082;8.200;2023-11-22T00:50:57;100940.94;;;5.49;93.29
7200;BME280;3641;49.082;8.200;2023-11-22T00:53:24;100942.38;;;5.53;93.14
7200;BME280;3641;49.082;8.200;2023-11-22T00:55:51;100951.09;;;5.56;93.40
7200;BME280;3641;49.082;8.200;2023-11-22T00:58:18;100948.09;;;5.59;92.16
7200;BME280;3641;49.082;8.200;2023-11-22T01:00:45;100946.50;;;5.47;93.75
7200;BME280;3641;49.082;8.200;2023-11-22T01:03:12;100949.97;;;5.59;92.78
7200;BME280;3641;49.082;8.200;2023-11-22T01:05:39;100957.41;;;5.76;93.52
7200;BME280;3641;49.082;8.200;2023-11-22T01:08:07;100955.66;;;5.56;92.45
7200;BME280;3641;49.082;8.200;2023-11-22T01:10:34;100948.91;;;5.50;92.44
7200;BME280;3641;49.082;8.200;2023-11-22T01:13:00;100954.56;;;5.68;93.26
7200;BME280;3641;49.082;8.200;2023-11-22T01:15:27;100954.97;;;5.63;93.35
7200;BME280;3641;49.082;8.200;2023-11-22T01:17:54;100953.72;;;5.37;92.59
7200;BME280;3641;49.082;8.200;2023-11-22T01:20:21;100952.91;;;5.46;93.43
7200;BME280;3641;49.082;8.200;2023-11-22T01:22:48;100958.69;;;5.32;94.07
7200;BME280;3641;49.082;8.200;2023-11-22T01:25:15;100971.06;;;5.24;95.37
7200;BME280;3641;49.082;8.200;2023-11-22T01:27:41;100968.63;;;5.21;96.20
7200;BME280;3641;49.082;8.200;2023-11-22T01:30:08;100964.56;;;5.06;97.31
7200;BME280;3641;49.082;8.200;2023-11-22T01:32:35;100970.28;;;5.13;98.10
7200;BME280;3641;49.082;8.200;2023-11-22T01:35:03;100968.88;;;5.18;97.61
7200;BME280;3641;49.082;8.200;2023-11-22T01:37:31;100978.53;;;5.11;97.87
7200;BME280;3641;49.082;8.200;2023-11-22T01:39:57;100984.59;;;5.24;98.41
7200;BME280;3641;49.082;8.200;2023-11-22T01:42:24;100986.19;;;5.27;97.93
7200;BME280;3641;49.082;8.200;2023-11-22T01:44:50;100979.44;;;5.21;98.08
7200;BME280;3641;49.082;8.200;2023-11-22T01:47:17;100982.94;;;5.33;95.55
7200;BME280;3641;49.082;8.200;2023-11-22T01:49:45;100991.50;;;5.07;95.56
7200;BME280;3641;49.082;8.200;2023-11-22T01:52:13;101000.06;;;5.13;95.44
7200;BME280;3641;49.082;8.200;2023-11-22T01:54:40;101004.16;;;4.86;95.31
7200;BME280;3641;49.082;8.200;2023-11-22T01:57:08;101005.59;;;5.11;95.51
7200;BME280;3641;49.082;8.200;2023-11-22T01:59:35;101012.31;;;5.17;95.68
7200;BME280;3641;49.082;8.200;2023-11-22T02:02:03;101008.75;;;5.16;94.80
7200;BME280;3641;49.082;8.200;2023-11-22T02:04:30;101016.78;;;5.27;94.66
7200;BME280;3641;49.082;8.200;2023-11-22T02:06:56;101017.81;;;5.26;94.98
7200;BME280;3641;49.082;8.200;2023-11-22T02:09:24;101026.19;;;5.23;95.03
7200;BME280;3641;49.082;8.200;2023-11-22T02:11:50;101030.81;;;4.90;94.40
7200;BME280;3641;49.082;8.200;2023-11-22T02:14:17;101037.22;;;5.11;94.85
7200;BME280;3641;49.082;8.200;2023-11-22T02:16:44;101037.69;;;4.95;93.72
7200;BME280;3641;49.082;8.200;2023-11-22T02:19:14;101035.09;;;5.35;92.89
7200;BME280;3641;49.082;8.200;2023-11-22T02:21:41;101041.69;;;5.21;94.10
7200;BME280;3641;49.082;8.200;2023-11-22T02:24:09;101053.88;;;5.06;93.90
7200;BME280;3641;49.082;8.200;2023-11-22T02:26:35;101049.88;;;5.10;93.39
7200;BME280;3641;49.082;8.200;2023-11-22T02:29:03;101055.03;;;4.92;92.91
7200;BME280;3641;49.082;8.200;2023-11-22T02:31:30;101050.47;;;5.14;93.32
7200;BME280;3641;49.082;8.200;2023-11-22T02:33:56;101060.19;;;5.16;93.28
7200;BME280;3641;49.082;8.200;2023-11-22T02:36:23;101062.63;;;4.98;93.18
7200;BME280;3641;49.082;8.200;2023-11-22T02:38:50;101070.00;;;5.38;92.55
7200;BME280;3641;49.082;8.200;2023-11-22T02:41:17;101077.88;;;5.20;92.89
7200;BME280;3641;49.082;8.200;2023-11-22T02:43:44;101087.16;;;4.85;91.66
7200;BME280;3641;49.082;8.200;2023-11-22T02:46:11;101094.31;;;5.07;93.68
7200;BME280;3641;49.082;8.200;2023-11-22T02:48:37;101093.81;;;4.81;91.50
7200;BME280;3641;49.082;8.200;2023-11-22T02:51:04;101101.41;;;4.87;92.02
7200;BME280;3641;49.082;8.200;2023-11-22T02:53:31;101101.31;;;5.10;91.22
7200;BME280;3641;49.082;8.200;2023-11-22T02:55:59;101104.13;;;4.87;91.37
7200;BME280;3641;49.082;8.200;2023-11-22T02:58:27;101100.06;;;4.93;90.41
7200;BME280;3641;49.082;8.200;2023-11-22T03:00:54;101110.00;;;4.93;90.47
7200;BME280;3641;49.082;8.200;2023-11-22T03:03:22;101099.25;;;5.02;89.39
7200;BME280;3641;49.082;8.200;2023-11-22T03:05:49;101100.91;;;4.50;86.98
7200;BME280;3641;49.082;8.200;2023-11-22T03:08:15;101102.47;;;4.20;86.78
7200;BME280;3641;49.082;8.200;2023-11-22T03:10:42;101110.00;;;4.60;88.00
7200;BME280;3641;49.082;8.200;2023-11-22T03:13:08;101109.50;;;4.66;87.42
7200;BME280;3641;49.082;8.200;2023-11-22T03:15:36;101095.91;;;4.34;86.07
7200;BME280;3641;49.082;8.200;2023-11-22T03:18:03;101102.75;;;4.61;87.51
7200;BME280;3641;49.082;8.200;2023-11-22T03:20:31;101089.72;;;4.54;86.72
7200;BME280;3641;49.082;8.200;2023-11-22T03:22:57;101099.38;;;4.36;85.28
7200;BME280;3641;49.082;8.200;2023-11-22T03:25:25;101109.38;;;4.02;85.99
7200;BME280;3641;49.082;8.200;2023-11-22T03:27:52;101106.88;;;4.21;86.51
7200;BME280;3641;49.082;8.200;2023-11-22T03:30:18;101121.53;;;4.07;84.83
7200;BME280;3641;49.082;8.200;2023-11-22T03:32:46;101125.34;;;4.05;84.76
7200;BME280;3641;49.082;8.200;2023-11-22T03:35:13;101121.03;;;3.91;85.09
7200;BME280;3641;49.082;8.200;2023-11-22T03:37:39;101126.44;;;3.79;84.15
7200;BME280;3641;49.082;8.200;2023-11-22T03:40:07;101130.09;;;4.24;86.53
7200;BME280;3641;49.082;8.200;2023-11-22T03:42:35;101147.56;;;3.97;84.83
7200;BME280;3641;49.082;8.200;2023-11-22T03:45:02;101146.34;;;4.01;84.76
7200;BME280;3641;49.082;8.200;2023-11-22T03:47:29;101149.88;;;4.02;84.67
7200;BME280;3641;49.082;8.200;2023-11-22T03:49:58;101154.44;;;3.78;84.50
7200;BME280;3641;49.082;8.200;2023-11-22T03:52:25;101145.44;;;3.67;84.45
7200;BME280;3641;49.082;8.200;2023-11-22T03:54:52;101154.31;;;4.03;86.12
7200;BME280;3641;49.082;8.200;2023-11-22T03:57:18;101156.66;;;3.96;85.55
7200;BME280;3641;49.082;8.200;2023-11-22T03:59:45;101165.47;;;3.75;84.83
7200;BME280;3641;49.082;8.200;2023-11-22T04:02:11;101177.00;;;3.77;86.00
7200;BME280;3641;49.082;8.200;2023-11-22T04:04:37;101169.03;;;3.87;86.20
7200;BME280;3641;49.082;8.200;2023-11-22T04:07:06;101155.28;;;3.68;87.01
7200;BME280;3641;49.082;8.200;2023-11-22T04:09:33;101157.75;;;3.82;87.74
7200;BME280;3641;49.082;8.200;2023-11-22T04:11:59;101166.44;;;3.63;88.01
7200;BME280;3641;49.082;8.200;2023-11-22T04:14:26;101163.03;;;3.72;88.56
7200;BME280;3641;49.082;8.200;2023-11-22T04:16:52;101162.53;;;3.67;88.58
7200;BME280;3641;49.082;8.200;2023-11-22T04:19:18;101161.31;;;3.82;88.85
7200;BME280;3641;49.082;8.200;2023-11-22T04:21:45;101170.75;;;3.66;89.58
7200;BME280;3641;49.082;8.200;2023-11-22T04:24:13;101185.34;;;3.63;89.40
7200;BME280;3641;49.082;8.200;2023-11-22T04:26:39;101190.94;;;3.49;90.18
7200;BME280;3641;49.082;8.200;2023-11-22T04:29:06;101196.75;;;3.67;90.44
7200;BME280;3641;49.082;8.200;2023-11-22T04:31:32;101205.56;;;3.57;91.06
7200;BME280;3641;49.082;8.200;2023-11-22T04:33:59;101205.44;;;3.59;90.92
7200;BME280;3641;49.082;8.200;2023-11-22T04:36:26;101216.84;;;3.51;90.97
7200;BME280;3641;49.082;8.200;2023-11-22T04:38:52;101221.13;;;3.54;92.17
7200;BME280;3641;49.082;8.200;2023-11-22T04:41:20;101218.56;;;3.52;91.59
7200;BME280;3641;49.082;8.200;2023-11-22T04:43:47;101233.50;;;3.45;91.95
7200;BME280;3641;49.082;8.200;2023-11-22T04:46:14;101227.41;;;3.54;91.17
7200;BME280;3641;49.082;8.200;2023-11-22T04:48:40;101246.56;;;3.62;91.55
7200;BME280;3641;49.082;8.200;2023-11-22T04:51:10;101241.84;;;3.42;90.59
7200;BME280;3641;49.082;8.200;2023-11-22T04:53:36;101253.13;;;3.47;91.17
7200;BME280;3641;49.082;8.200;2023-11-22T04:56:03;101250.81;;;3.54;91.24
7200;BME280;3641;49.082;8.200;2023-11-22T04:58:32;101252.28;;;3.47;90.26
7200;BME280;3641;49.082;8.200;2023-11-22T05:00:59;101249.16;;;3.64;90.87
7200;BME280;3641;49.082;8.200;2023-11-22T05:03:26;101261.41;;;3.57;90.47
7200;BME280;3641;49.082;8.200;2023-11-22T05:05:53;101260.13;;;3.38;90.74
7200;BME280;3641;49.082;8.200;2023-11-22T05:08:19;101268.03;;;3.53;91.27
7200;BME280;3641;49.082;8.200;2023-11-22T05:10:46;101274.19;;;3.31;90.11
7200;BME280;3641;49.082;8.200;2023-11-22T05:13:12;101271.47;;;3.31;90.40
7200;BME280;3641;49.082;8.200;2023-11-22T05:15:40;101270.72;;;3.53;89.85
7200;BME280;3641;49.082;8.200;2023-11-22T05:18:06;101268.06;;;3.16;90.39
7200;BME280;3641;49.082;8.200;2023-11-22T05:20:33;101268.31;;;3.37;89.74
7200;BME280;3641;49.082;8.200;2023-11-22T05:22:59;101266.63;;;3.47;89.76
7200;BME280;3641;49.082;8.200;2023-11-22T05:25:26;101269.00;;;3.27;89.89
7200;BME280;3641;49.082;8.200;2023-11-22T05:27:52;101275.53;;;3.36;89.43
7200;BME280;3641;49.082;8.200;2023-11-22T05:30:19;101276.19;;;3.40;89.28
7200;BME280;3641;49.082;8.200;2023-11-22T05:32:48;101276.09;;;3.28;89.28
7200;BME280;3641;49.082;8.200;2023-11-22T05:35:14;101285.75;;;3.44;89.05
7200;BME280;3641;49.082;8.200;2023-11-22T05:37:41;101283.13;;;3.07;89.66
7200;BME280;3641;49.082;8.200;2023-11-22T05:40:08;101288.34;;;3.21;90.12
7200;BME280;3641;49.082;8.200;2023-11-22T05:42:36;101294.72;;;3.20;90.22
7200;BME280;3641;49.082;8.200;2023-11-22T05:45:03;101294.03;;;3.05;87.83
7200;BME280;3641;49.082;8.200;2023-11-22T05:47:31;101298.47;;;3.06;87.30
7200;BME280;3641;49.082;8.200;2023-11-22T05:49:58;101299.25;;;3.20;86.73
7200;BME280;3641;49.082;8.200;2023-11-22T05:52:25;101311.94;;;3.06;87.39
7200;BME280;3641;49.082;8.200;2023-11-22T05:54:51;101309.66;;;3.13;86.13
7200;BME280;3641;49.082;8.200;2023-11-22T05:57:18;101314.81;;;3.16;86.18
7200;BME280;3641;49.082;8.200;2023-11-22T05:59:45;101313.34;;;2.99;85.49
7200;BME280;3641;49.082;8.200;2023-11-22T06:02:11;101322.81;;;3.18;85.78
7200;BME280;3641;49.082;8.200;2023-11-22T06:04:38;101328.09;;;3.19;85.08
7200;BME280;3641;49.082;8.200;2023-11-22T06:07:06;101339.84;;;3.18;85.26
7200;BME280;3641;49.082;8.200;2023-11-22T06:09:33;101338.53;;;3.48;85.77
7200;BME280;3641;49.082;8.200;2023-11-22T06:12:00;101346.16;;;2.93;83.72
7200;BME280;3641;49.082;8.200;2023-11-22T06:14:26;101356.56;;;2.73;83.19
7200;BME280;3641;49.082;8.200;2023-11-22T06:16:52;101342.50;;;2.94;84.06
7200;BME280;3641;49.082;8.200;2023-11-22T06:19:19;101353.63;;;2.77;83.19
7200;BME280;3641;49.082;8.200;2023-11-22T06:21:46;101341.09;;;2.88;83.18
7200;BME280;3641;49.082;8.200;2023-11-22T06:24:13;101347.28;;;2.65;82.88
7200;BME280;3641;49.082;8.200;2023-11-22T06:26:41;101346.94;;;2.82;84.35
7200;BME280;3641;49.082;8.200;2023-11-22T06:29:08;101346.91;;;3.08;84.56
7200;BME280;3641;49.082;8.200;2023-11-22T06:31:34;101347.38;;;2.89;84.03
7200;BME280;3641;49.082;8.200;2023-11-22T06:34:01;101363.03;;;3.21;84.38
7200;BME280;3641;49.082;8.200;2023-11-22T06:36:27;101364.94;;;2.82;82.80
7200;BME280;3641;49.082;8.200;2023-11-22T06:38:54;101363.41;;;3.03;84.15
7200;BME280;3641;49.082;8.200;2023-11-22T06:41:22;101362.66;;;2.88;82.65
7200;BME280;3641;49.082;8.200;2023-11-22T06:43:49;101372.56;;;3.01;83.35
7200;BME280;3641;49.082;8.200;2023-11-22T06:46:15;101375.63;;;2.83;83.25
7200;BME280;3641;49.082;8.200;2023-11-22T06:48:42;101383.38;;;3.01;85.04
7200;BME280;3641;49.082;8.200;2023-11-22T06:51:09;101393.66;;;2.83;82.24
7200;BME280;3641;49.082;8.200;2023-11-22T06:53:36;101401.72;;;2.96;83.67
7200;BME280;3641;49.082;8.200;2023-11-22T06:56:02;101397.72;;;2.88;84.15
7200;BME280;3641;49.082;8.200;2023-11-22T06:58:30;101404.94;;;3.01;83.95
7200;BME280;3641;49.082;8.200;2023-11-22T07:00:57;101408.56;;;3.13;84.96
7200;BME280;3641;49.082;8.200;2023-11-22T07:03:23;101418.31;;;3.02;83.29
7200;BME280;3641;49.082;8.200;2023-11-22T07:05:50;101425.00;;;2.84;84.06
7200;BME280;3641;49.082;8.200;2023-11-22T07:08:16;101437.84;;;2.80;82.45
7200;BME280;3641;49.082;8.200;2023-11-22T07:10:43;101430.50;;;2.82;83.28
7200;BME280;3641;49.082;8.200;2023-11-22T07:13:10;101425.66;;;3.00;83.10
7200;BME280;3641;49.082;8.200;2023-11-22T07:15:39;101413.06;;;2.75;81.88
7200;BME280;3641;49.082;8.200;2023-11-22T07:18:06;101409.63;;;2.86;82.53
7200;BME280;3641;49.082;8.200;2023-11-22T07:20:32;101420.16;;;3.15;83.74
7200;BME280;3641;49.082;8.200;2023-11-22T07:22:59;101417.63;;;3.24;83.24
7200;BME280;3641;49.082;8.200;2023-11-22T07:25:25;101418.84;;;3.07;82.47
7200;BME280;3641;49.082;8.200;2023-11-22T07:27:52;101427.81;;;2.95;83.18
7200;BME280;3641;49.082;8.200;2023-11-22T07:30:19;101437.28;;;3.14;83.78
7200;BME280;3641;49.082;8.200;2023-11-22T07:32:50;101445.59;;;3.23;83.28
7200;BME280;3641;49.082;8.200;2023-11-22T07:35:18;101448.53;;;3.07;82.25
7200;BME280;3641;49.082;8.200;2023-11-22T07:37:46;101454.34;;;3.01;83.00
7200;BME280;3641;49.082;8.200;2023-11-22T07:40:13;101453.81;;;2.83;82.99
7200;BME280;3641;49.082;8.200;2023-11-22T07:42:40;101451.66;;;3.01;82.53
7200;BME280;3641;49.082;8.200;2023-11-22T07:45:07;101447.47;;;2.97;84.06
7200;BME280;3641;49.082;8.200;2023-11-22T07:47:36;101445.63;;;2.85;83.26
7200;BME280;3641;49.082;8.200;2023-11-22T07:50:07;101450.28;;;2.96;84.38
7200;BME280;3641;49.082;8.200;2023-11-22T07:52:34;101451.97;;;2.71;83.64
7200;BME280;3641;49.082;8.200;2023-11-22T07:55:01;101450.06;;;2.86;84.06
7200;BME280;3641;49.082;8.200;2023-11-22T07:57:28;101446.78;;;2.81;84.10
7200;BME280;3641;49.082;8.200;2023-11-22T07:59:54;101451.03;;;2.72;85.24
7200;BME280;3641;49.082;8.200;2023-11-22T08:02:21;101453.25;;;3.17;84.67
7200;BME280;3641;49.082;8.200;2023-11-22T08:04:48;101460.38;;;2.79;83.68
7200;BME280;3641;49.082;8.200;2023-11-22T08:07:17;101467.41;;;2.69;82.62
7200;BME280;3641;49.082;8.200;2023-11-22T08:09:44;101458.78;;;3.02;83.08
7200;BME280;3641;49.082;8.200;2023-11-22T08:12:10;101463.44;;;3.00;83.37
7200;BME280;3641;49.082;8.200;2023-11-22T08:14:38;101463.44;;;2.87;81.72
7200;BME280;3641;49.082;8.200;2023-11-22T08:17:05;101469.13;;;2.70;81.01
7200;BME280;3641;49.082;8.200;2023-11-22T08:19:32;101460.25;;;2.55;79.57
7200;BME280;3641;49.082;8.200;2023-11-22T08:21:58;101461.69;;;2.86;81.49
7200;BME280;3641;49.082;8.200;2023-11-22T08:24:26;101455.56;;;2.97;81.57
7200;BME280;3641;49.082;8.200;2023-11-22T08:26:52;101458.78;;;2.89;81.84
7200;BME280;3641;49.082;8.200;2023-11-22T08:29:19;101456.72;;;3.06;80.54
7200;BME280;3641;49.082;8.200;2023-11-22T08:31:45;101457.25;;;2.98;81.02
7200;BME280;3641;49.082;8.200;2023-11-22T08:34:13;101464.72;;;2.95;80.18
7200;BME280;3641;49.082;8.200;2023-11-22T08:36:40;101458.97;;;3.12;81.14
7200;BME280;3641;49.082;8.200;2023-11-22T08:39:07;101466.56;;;3.07;78.07
7200;BME280;3641;49.082;8.200;2023-11-22T08:41:34;101462.31;;;3.28;80.74
7200;BME280;3641;49.082;8.200;2023-11-22T08:44:01;101462.22;;;3.17;79.90
7200;BME280;3641;49.082;8.200;2023-11-22T08:46:27;101470.63;;;3.25;78.21
7200;BME280;3641;49.082;8.200;2023-11-22T08:48:54;101471.63;;;3.12;76.23
7200;BME280;3641;49.082;8.200;2023-11-22T08:51:21;101466.22;;;3.12;74.40
7200;BME280;3641;49.082;8.200;2023-11-22T08:53:48;101481.63;;;2.71;74.27
7200;BME280;3641;49.082;8.200;2023-11-22T08:56:14;101478.09;;;2.70;72.80
7200;BME280;3641;49.082;8.200;2023-11-22T08:58:42;101465.56;;;2.95;74.88
7200;BME280;3641;49.082;8.200;2023-11-22T09:01:09;101453.41;;;2.89;73.64
7200;BME280;3641;49.082;8.200;2023-11-22T09:03:36;101462.88;;;3.08;74.46
7200;BME280;3641;49.082;8.200;2023-11-22T09:06:03;101465.13;;;3.01;71.94
7200;BME280;3641;49.082;8.200;2023-11-22T09:08:32;101469.16;;;2.96;71.59
7200;BME280;3641;49.082;8.200;2023-11-22T09:10:58;101473.22;;;2.88;71.54
7200;BME280;3641;49.082;8.200;2023-11-22T09:13:24;101466.66;;;3.18;73.21
7200;BME280;3641;49.082;8.200;2023-11-22T09:15:52;101473.72;;;3.45;72.49
7200;BME280;3641;49.082;8.200;2023-11-22T09:18:19;101481.31;;;3.40;72.11
7200;BME280;3641;49.082;8.200;2023-11-22T09:20:47;101489.84;;;2.95;70.10
7200;BME280;3641;49.082;8.200;2023-11-22T09:23:13;101491.63;;;3.46;73.03
7200;BME280;3641;49.082;8.200;2023-11-22T09:25:40;101495.09;;;3.48;72.31
7200;BME280;3641;49.082;8.200;2023-11-22T09:28:06;101499.00;;;3.31;73.51
7200;BME280;3641;49.082;8.200;2023-11-22T09:30:34;101504.84;;;3.25;72.97
7200;BME280;3641;49.082;8.200;2023-11-22T09:33:05;101512.28;;;3.34;73.70
7200;BME280;3641;49.082;8.200;2023-11-22T09:35:32;101519.94;;;3.40;74.27
7200;BME280;3641;49.082;8.200;2023-11-22T09:38:00;101516.72;;;3.35;73.74
7200;BME280;3641;49.082;8.200;2023-11-22T09:40:28;101509.38;;;3.12;73.65
7200;BME280;3641;49.082;8.200;2023-11-22T09:42:57;101508.28;;;3.27;73.84
7200;BME280;3641;49.082;8.200;2023-11-22T09:45:24;101510.84;;;3.41;75.12
7200;BME280;3641;49.082;8.200;2023-11-22T09:47:51;101503.97;;;3.37;74.48
7200;BME280;3641;49.082;8.200;2023-11-22T09:50:22;101490.94;;;3.18;72.94
7200;BME280;3641;49.082;8.200;2023-11-22T09:52:51;101502.66;;;3.30;73.88
7200;BME280;3641;49.082;8.200;2023-11-22T09:55:20;101508.19;;;3.03;72.22
7200;BME280;3641;49.082;8.200;2023-11-22T09:57:47;101500.41;;;3.37;76.88
7200;BME280;3641;49.082;8.200;2023-11-22T10:00:16;101498.59;;;3.24;73.91
7200;BME280;3641;49.082;8.200;2023-11-22T10:02:44;101498.66;;;3.49;74.36
7200;BME280;3641;49.082;8.200;2023-11-22T10:05:10;101510.31;;;3.36;73.02
7200;BME280;3641;49.082;8.200;2023-11-22T10:07:39;101517.16;;;3.29;74.63
7200;BME280;3641;49.082;8.200;2023-11-22T10:10:06;101517.38;;;3.13;72.93
7200;BME280;3641;49.082;8.200;2023-11-22T10:12:35;101519.88;;;3.16;73.64
7200;BME280;3641;49.082;8.200;2023-11-22T10:15:15;101525.97;;;3.57;75.35
7200;BME280;3641;49.082;8.200;2023-11-22T10:17:47;101533.25;;;3.31;75.33
7200;BME280;3641;49.082;8.200;2023-11-22T10:20:14;101543.16;;;3.17;72.67
7200;BME280;3641;49.082;8.200;2023-11-22T10:22:46;101541.88;;;3.36;73.80
7200;BME280;3641;49.082;8.200;2023-11-22T10:25:14;101553.50;;;3.23;74.96
7200;BME280;3641;49.082;8.200;2023-11-22T10:27:44;101538.09;;;3.38;75.52
7200;BME280;3641;49.082;8.200;2023-11-22T10:30:11;101543.16;;;3.56;76.87
7200;BME280;3641;49.082;8.200;2023-11-22T10:32:37;101555.34;;;3.23;73.67
7200;BME280;3641;49.082;8.200;2023-11-22T10:35:05;101550.72;;;3.12;73.61
7200;BME280;3641;49.082;8.200;2023-11-22T10:37:32;101556.75;;;3.03;74.86
7200;BME280;3641;49.082;8.200;2023-11-22T10:40:00;101554.03;;;3.28;73.85
7200;BME280;3641;49.082;8.200;2023-11-22T10:42:27;101556.75;;;3.28;74.65
7200;BME280;3641;49.082;8.200;2023-11-22T10:44:55;101551.13;;;3.44;73.97
7200;BME280;3641;49.082;8.200;2023-11-22T10:47:22;101560.88;;;3.21;73.34
7200;BME280;3641;49.082;8.200;2023-11-22T10:49:49;101566.25;;;3.34;74.44
7200;BME280;3641;49.082;8.200;2023-11-22T10:52:18;101585.66;;;3.65;73.71
7200;BME280;3641;49.082;8.200;2023-11-22T10:54:49;101592.59;;;3.43;72.00
7200;BME280;3641;49.082;8.200;2023-11-22T10:57:19;101596.16;;;3.44;75.25
7200;BME280;3641;49.082;8.200;2023-11-22T10:59:54;101587.53;;;3.52;73.30
7200;BME280;3641;49.082;8.200;2023-11-22T11:02:21;101588.47;;;3.63;73.89
7200;BME280;3641;49.082;8.200;2023-11-22T11:04:56;101595.72;;;3.37;72.72
7200;BME280;3641;49.082;8.200;2023-11-22T11:07:28;101592.59;;;3.43;72.73
7200;BME280;3641;49.082;8.200;2023-11-22T11:09:57;101581.69;;;3.58;73.52
7200;BME280;3641;49.082;8.200;2023-11-22T11:12:27;101577.25;;;3.57;72.09
7200;BME280;3641;49.082;8.200;2023-11-22T11:14:54;101583.09;;;3.51;72.74
7200;BME280;3641;49.082;8.200;2023-11-22T11:17:21;101579.00;;;3.58;71.19
7200;BME280;3641;49.082;8.200;2023-11-22T11:19:49;101581.00;;;3.93;75.50
7200;BME280;3641;49.082;8.200;2023-11-22T11:22:16;101595.69;;;3.89;73.51
7200;BME280;3641;49.082;8.200;2023-11-22T11:24:47;101604.00;;;3.86;75.01
7200;BME280;3641;49.082;8.200;2023-11-22T11:27:15;101608.78;;;3.82;73.39
7200;BME280;3641;49.082;8.200;2023-11-22T11:29:46;101605.75;;;3.87;72.69
7200;BME280;3641;49.082;8.200;2023-11-22T11:32:15;101607.00;;;3.94;73.14
7200;BME280;3641;49.082;8.200;2023-11-22T11:34:47;101605.97;;;3.84;71.80
7200;BME280;3641;49.082;8.200;2023-11-22T11:37:15;101605.06;;;4.09;75.00
7200;BME280;3641;49.082;8.200;2023-11-22T11:39:42;101601.09;;;3.76;69.75
7200;BME280;3641;49.082;8.200;2023-11-22T11:42:09;101604.03;;;3.73;69.71
7200;BME280;3641;49.082;8.200;2023-11-22T11:44:36;101610.53;;;3.70;70.95
7200;BME280;3641;49.082;8.200;2023-11-22T11:47:10;101622.06;;;3.72;69.51
7200;BME280;3641;49.082;8.200;2023-11-22T11:49:37;101621.22;;;3.85;74.29
7200;BME280;3641;49.082;8.200;2023-11-22T11:52:04;101631.47;;;3.67;68.63
7200;BME280;3641;49.082;8.200;2023-11-22T11:54:30;101637.63;;;3.69;69.25
7200;BME280;3641;49.082;8.200;2023-11-22T11:56:58;101622.78;;;4.00;71.54
7200;BME280;3641;49.082;8.200;2023-11-22T11:59:25;101613.91;;;4.11;70.00
7200;BME280;3641;49.082;8.200;2023-11-22T12:01:52;101623.66;;;3.88;69.81
7200;BME280;3641;49.082;8.200;2023-11-22T12:04:22;101628.09;;;3.89;68.04
7200;BME280;3641;49.082;8.200;2023-11-22T12:06:49;101627.75;;;4.06;69.49
7200;BME280;3641;49.082;8.200;2023-11-22T12:09:22;101630.47;;;3.93;68.82
7200;BME280;3641;49.082;8.200;2023-11-22T12:11:49;101638.75;;;4.03;71.38
7200;BME280;3641;49.082;8.200;2023-11-22T12:14:16;101638.03;;;4.01;70.47
7200;BME280;3641;49.082;8.200;2023-11-22T12:16:44;101637.22;;;4.25;72.31
7200;BME280;3641;49.082;8.200;2023-11-22T12:19:22;101638.56;;;4.06;70.32
7200;BME280;3641;49.082;8.200;2023-11-22T12:21:49;101627.22;;;4.01;70.16
7200;BME280;3641;49.082;8.200;2023-11-22T12:24:15;101628.69;;;4.05;70.52
7200;BME280;3641;49.082;8.200;2023-11-22T12:26:44;101617.16;;;4.03;66.41
7200;BME280;3641;49.082;8.200;2023-11-22T12:29:12;101616.13;;;4.30;69.72
7200;BME280;3641;49.082;8.200;2023-11-22T12:31:44;101614.59;;;3.89;66.43
7200;BME280;3641;49.082;8.200;2023-11-22T12:34:12;101615.56;;;4.00;67.49
7200;BME280;3641;49.082;8.200;2023-11-22T12:36:41;101607.19;;;4.16;67.68
7200;BME280;3641;49.082;8.200;2023-11-22T12:39:08;101612.81;;;4.13;68.41
7200;BME280;3641;49.082;8.200;2023-11-22T12:41:41;101605.00;;;4.22;67.57
7200;BME280;3641;49.082;8.200;2023-11-22T12:44:08;101600.09;;;4.03;67.93
7200;BME280;3641;49.082;8.200;2023-11-22T12:46:48;101588.91;;;4.20;70.37
7200;BME280;3641;49.082;8.200;2023-11-22T12:49:20;101598.03;;;4.06;68.93
7200;BME280;3641;49.082;8.200;2023-11-22T12:51:49;101592.16;;;4.12;66.92
7200;BME280;3641;49.082;8.200;2023-11-22T12:54:16;101594.91;;;4.36;70.65
7200;BME280;3641;49.082;8.200;2023-11-22T12:56:45;101586.91;;;4.35;68.00
7200;BME280;3641;49.082;8.200;2023-11-22T12:59:11;101588.97;;;3.94;65.42
7200;BME280;3641;49.082;8.200;2023-11-22T13:01:38;101590.22;;;4.14;67.58
7200;BME280;3641;49.082;8.200;2023-11-22T13:04:05;101592.69;;;4.17;67.33
7200;BME280;3641;49.082;8.200;2023-11-22T13:06:31;101594.78;;;4.38;69.72
7200;BME280;3641;49.082;8.200;2023-11-22T13:08:59;101592.28;;;4.11;68.72
7200;BME280;3641;49.082;8.200;2023-11-22T13:11:25;101591.41;;;4.47;72.43
7200;BME280;3641;49.082;8.200;2023-11-22T13:13:52;101588.19;;;4.42;72.62
7200;BME280;3641;49.082;8.200;2023-11-22T13:16:18;101596.59;;;4.13;69.08
7200;BME280;3641;49.082;8.200;2023-11-22T13:18:45;101604.97;;;4.34;70.11
7200;BME280;3641;49.082;8.200;2023-11-22T13:21:13;101599.19;;;4.15;67.96
7200;BME280;3641;49.082;8.200;2023-11-22T13:23:39;101611.31;;;4.09;67.83